Time;durP1;ratioP1;P1;durP2;ratioP2;P2;SDS_P1;SDS_P2;PMS_P1;PMS_P2;Temp;Humidity;BMP_temperature;BMP_pressure;BME280_temperature;BME280_humidity;BME280_pressure;Samples;Min_cycle;Max_cycle;Signal;HPM_P1;HPM_P2
2021/04/10 00:02:13;;;;;;;6.60;3.90;;;;;;;8.49;38.85;99331.86;1785866;80;21139;-84
2021/04/10 00:04:40;;;;;;;7.80;4.25;;;;;;;8.45;38.85;99320.97;1785854;80;21168;-84
2021/04/10 00:07:07;;;;;;;6.75;4.15;;;;;;;8.43;38.86;99330.05;1785494;80;21143;-84
2021/04/10 00:09:33;;;;;;;6.95;4.50;;;;;;;8.38;38.95;99324.92;1785672;80;21136;-84
2021/04/10 00:12:00;;;;;;;8.80;4.78;;;;;;;8.34;39.02;99324.08;1785399;80;21578;-84
2021/04/10 00:14:27;;;;;;;6.70;4.22;;;;;;;8.31;38.99;99322.11;1785858;80;21156;-82
2021/04/10 00:16:53;;;;;;;7.77;4.37;;;;;;;8.27;39.03;99318.02;1785598;80;21155;-81
2021/04/10 00:19:20;;;;;;;6.05;4.35;;;;;;;8.24;39.03;99325.52;1785693;80;21376;-81
2021/04/10 00:21:47;;;;;;;6.42;4.33;;;;;;;8.22;39.02;99319.67;1785616;80;21116;-80
2021/04/10 00:24:13;;;;;;;6.28;4.50;;;;;;;8.20;39.03;99316.55;1785847;80;21173;-81
2021/04/10 00:26:40;;;;;;;8.90;4.72;;;;;;;8.20;39.03;99316.55;1786000;80;21124;-81
2021/04/10 00:29:06;;;;;;;5.03;3.77;;;;;;;8.18;39.05;99316.93;1785908;80;21225;-82
2021/04/10 00:31:34;;;;;;;6.08;4.10;;;;;;;8.16;39.04;99317.86;1785625;80;21160;-81
2021/04/10 00:34:01;;;;;;;6.03;4.30;;;;;;;8.14;39.04;99321.50;1785504;80;21105;-82
2021/04/10 00:36:28;;;;;;;7.45;4.08;;;;;;;8.14;39.03;99312.03;1785839;80;21156;-82
2021/04/10 00:38:54;;;;;;;6.80;4.50;;;;;;;8.13;38.96;99309.13;1785976;80;21135;-82
2021/04/10 00:41:21;;;;;;;5.95;3.87;;;;;;;8.13;38.92;99305.62;1783449;80;21172;-81
2021/04/10 00:43:48;;;;;;;7.08;4.25;;;;;;;8.15;38.89;99312.23;1782406;80;21171;-81
2021/04/10 00:46:14;;;;;;;5.70;4.67;;;;;;;8.15;38.83;99300.05;1782442;80;21309;-84
2021/04/10 00:48:41;;;;;;;6.87;4.03;;;;;;;8.17;38.82;99303.18;1782691;80;21584;-83
2021/04/10 00:51:07;;;;;;;6.17;4.50;;;;;;;8.19;38.79;99303.60;1782690;80;21148;-84
2021/04/10 00:53:34;;;;;;;6.20;3.95;;;;;;;8.22;38.65;99302.86;1782669;80;21160;-84
2021/04/10 00:56:03;;;;;;;6.75;4.30;;;;;;;8.26;38.54;99301.55;1752110;80;21105;-84
2021/04/10 00:58:31;;;;;;;6.15;4.10;;;;;;;8.31;38.51;99301.81;1782646;80;21144;-83
2021/04/10 01:00:57;;;;;;;8.20;4.50;;;;;;;8.34;38.41;99295.66;1782301;80;21163;-83
2021/04/10 01:03:24;;;;;;;7.10;4.77;;;;;;;8.35;38.27;99297.25;1782557;80;21132;-83
2021/04/10 01:05:51;;;;;;;6.53;3.92;;;;;;;8.40;38.24;99299.63;1782168;80;21627;-83
2021/04/10 01:08:17;;;;;;;6.65;4.25;;;;;;;8.41;38.17;99301.21;1782674;80;21169;-83
2021/04/10 01:10:44;;;;;;;7.75;4.17;;;;;;;8.44;38.10;99296.41;1782655;80;21597;-85
2021/04/10 01:13:38;;;;;;;6.23;4.57;;;;;;;8.43;38.01;99296.99;1782931;80;21148;-85
2021/04/10 01:16:13;;;;;;;6.33;4.65;;;;;;;8.43;37.89;99296.99;1782185;80;21164;-85
2021/04/10 01:19:06;;;;;;;6.65;4.45;;;;;;;8.39;37.87;99296.73;1782411;80;21655;-84
2021/04/10 01:21:41;;;;;;;9.03;4.47;;;;;;;8.40;37.77;99295.57;1781366;80;21129;-85
2021/04/10 01:24:32;;;;;;;6.12;4.30;;;;;;;8.34;37.82;99289.67;1782325;80;21290;-84
2021/04/10 01:27:08;;;;;;;6.28;4.17;;;;;;;8.33;37.87;99289.48;1782861;80;21299;-84
2021/04/10 01:29:47;;;;;;;5.78;4.08;;;;;;;8.32;37.83;99288.48;1782295;80;21290;-84
2021/04/10 01:32:14;;;;;;;8.38;4.95;;;;;;;8.31;37.82;99282.30;1782129;80;21278;-85
2021/04/10 01:34:42;;;;;;;5.17;3.95;;;;;;;8.32;37.73;99282.52;1782604;80;21283;-86
2021/04/10 01:37:20;;;;;;;7.72;4.25;;;;;;;8.34;37.70;99284.27;1782780;80;21144;-87
2021/04/10 01:39:47;;;;;;;7.40;4.50;;;;;;;8.38;37.62;99277.56;1779063;80;21599;-87
2021/04/10 01:42:14;;;;;;;7.85;4.10;;;;;;;8.38;37.58;99274.28;1784840;80;21152;-87
2021/04/10 01:44:41;;;;;;;5.85;4.50;;;;;;;8.39;37.52;99274.50;1785139;80;21695;-88
2021/04/10 01:47:08;;;;;;;6.05;3.95;;;;;;;8.41;37.48;99274.92;1785376;80;21278;-87
2021/04/10 01:49:35;;;;;;;8.30;4.30;;;;;;;8.42;37.32;99275.12;1784995;80;21110;-86
2021/04/10 01:52:02;;;;;;;6.20;4.33;;;;;;;8.45;37.26;99274.38;1784918;80;21674;-87
2021/04/10 01:54:29;;;;;;;6.20;4.40;;;;;;;8.46;37.27;99268.41;1785133;80;21172;-87
2021/04/10 01:56:55;;;;;;;8.18;4.60;;;;;;;8.48;37.22;99264.74;1785357;80;21307;-87
2021/04/10 01:59:22;;;;;;;6.60;4.67;;;;;;;8.50;37.13;99261.68;1784862;80;21129;-87
2021/04/10 02:01:48;;;;;;;6.47;4.87;;;;;;;8.50;37.07;99259.75;1785619;80;21120;-88
2021/04/10 02:04:15;;;;;;;6.05;4.30;;;;;;;8.50;37.04;99261.10;1785276;80;21638;-87
2021/04/10 02:06:44;;;;;;;6.72;4.30;;;;;;;8.50;37.04;99259.75;1785316;80;21283;-88
2021/04/10 02:09:11;;;;;;;7.12;4.28;;;;;;;8.50;37.04;99265.73;1785014;80;21295;-86
2021/04/10 02:11:37;;;;;;;7.53;4.90;;;;;;;8.48;37.00;99252.56;1785184;80;21592;-84
2021/04/10 02:14:04;;;;;;;6.60;4.77;;;;;;;8.47;37.07;99253.72;1785336;80;21286;-83
2021/04/10 02:16:31;;;;;;;6.17;4.40;;;;;;;8.45;37.09;99250.59;1785291;80;21610;-84
2021/04/10 02:18:57;;;;;;;7.30;4.83;;;;;;;8.43;37.09;99252.34;1785195;80;21267;-84
2021/04/10 02:21:27;;;;;;;7.30;4.65;;;;;;;8.41;37.13;99247.86;1785070;80;21446;-84
2021/04/10 02:23:55;;;;;;;7.75;4.80;;;;;;;8.38;37.09;99250.50;1784928;80;21286;-84
2021/04/10 02:26:21;;;;;;;8.13;5.08;;;;;;;8.35;37.07;99245.83;1785089;80;21128;-83
2021/04/10 02:28:48;;;;;;;8.00;5.08;;;;;;;8.31;37.12;99245.77;1785361;80;21706;-84
2021/04/10 02:31:17;;;;;;;6.45;4.60;;;;;;;8.29;37.19;99251.34;1785346;80;21278;-84
2021/04/10 02:33:44;;;;;;;6.58;4.37;;;;;;;8.24;37.30;99249.75;1785481;80;21144;-84
2021/04/10 02:36:12;;;;;;;6.28;4.30;;;;;;;8.21;37.26;99240.99;1785301;80;21278;-85
2021/04/10 02:38:39;;;;;;;7.87;4.37;;;;;;;8.18;37.32;99248.50;1785102;80;21137;-84
2021/04/10 02:41:12;;;;;;;6.28;4.28;;;;;;;8.15;37.40;99247.88;1755503;80;21167;-84
2021/04/10 02:43:40;;;;;;;6.67;4.67;;;;;;;8.11;37.40;99240.31;1782584;80;21148;-84
2021/04/10 02:46:07;;;;;;;6.05;4.47;;;;;;;8.08;37.44;99241.05;1787160;80;21172;-85
2021/04/10 02:48:36;;;;;;;7.17;4.37;;;;;;;8.05;37.50;99237.69;1787455;80;21628;-85
2021/04/10 02:51:03;;;;;;;7.78;4.92;;;;;;;8.02;37.56;99239.23;1787045;80;21167;-85
2021/04/10 02:53:34;;;;;;;7.78;4.70;;;;;;;7.99;37.62;99244.00;1786954;80;21159;-85
2021/04/10 02:56:00;;;;;;;7.47;4.70;;;;;;;7.97;37.59;99236.84;1787146;80;21171;-84
2021/04/10 02:58:27;;;;;;;7.30;4.80;;;;;;;7.95;37.64;99239.90;1756821;80;21124;-84
2021/04/10 03:00:55;;;;;;;8.08;4.40;;;;;;;7.93;37.66;99231.94;1787340;80;21151;-84
2021/04/10 03:03:21;;;;;;;7.70;4.75;;;;;;;7.91;37.68;99239.09;1787402;80;21575;-82
2021/04/10 03:05:48;;;;;;;6.80;4.78;;;;;;;7.89;37.75;99241.95;1787459;80;21120;-84
2021/04/10 03:08:22;;;;;;;7.47;4.70;;;;;;;7.85;37.79;99241.10;1787351;80;21109;-82
2021/04/10 03:10:50;;;;;;;6.65;4.92;;;;;;;7.83;37.91;99239.33;1786372;80;21602;-83
2021/04/10 03:13:17;;;;;;;6.83;4.75;;;;;;;7.77;37.93;99236.97;1787213;80;21112;-82
2021/04/10 03:15:45;;;;;;;6.60;4.90;;;;;;;7.74;37.93;99225.50;1787392;80;21109;-82
2021/04/10 03:18:11;;;;;;;;;;;;;;;7.72;37.94;99232.41;1789917;80;21156;-83
2021/04/10 03:20:38;;;;;;;6.47;4.47;;;;;;;7.71;37.88;99227.59;1749684;82;20392;-84
2021/04/10 03:23:04;;;;;;;5.95;4.55;;;;;;;7.70;37.79;99228.74;1787513;80;21136;-84
2021/04/10 03:25:31;;;;;;;6.67;4.25;;;;;;;7.66;37.81;99234.66;1787527;80;21168;-83
2021/04/10 03:27:58;;;;;;;6.87;4.60;;;;;;;7.65;37.82;99234.45;1787530;80;21196;-83
2021/04/10 03:30:24;;;;;;;7.28;4.33;;;;;;;7.64;37.89;99236.16;1787331;80;21176;-82
2021/04/10 03:32:51;;;;;;;6.53;4.33;;;;;;;7.58;37.97;99227.58;1787402;80;21168;-83
2021/04/10 03:35:18;;;;;;;5.70;4.42;;;;;;;7.57;37.95;99228.73;1756888;80;21579;-82
2021/04/10 03:37:45;;;;;;;6.30;4.62;;;;;;;7.57;37.88;99231.44;1787330;80;21153;-83
2021/04/10 03:40:12;;;;;;;6.10;4.70;;;;;;;7.58;37.92;99233.56;1787375;80;21571;-83
2021/04/10 03:42:40;;;;;;;6.17;4.55;;;;;;;7.58;37.85;99238.97;1785250;80;21697;-82
2021/04/10 03:45:09;;;;;;;6.70;5.03;;;;;;;7.58;37.88;99238.97;1785036;80;21148;-82
2021/04/10 03:47:35;;;;;;;8.08;5.00;;;;;;;7.59;37.81;99234.56;1784809;80;21310;-81
2021/04/10 03:50:03;;;;;;;6.90;4.58;;;;;;;7.62;37.75;99232.48;1785727;80;21512;-80
2021/04/10 03:52:29;;;;;;;7.22;5.12;;;;;;;7.68;37.63;99237.00;1784979;80;21137;-81
2021/04/10 03:54:56;;;;;;;6.92;4.72;;;;;;;7.72;37.64;99232.41;1785784;80;21570;-83
2021/04/10 03:57:24;;;;;;;6.67;4.83;;;;;;;7.76;37.51;99234.03;1785411;80;21306;-83
2021/04/10 03:59:50;;;;;;;7.78;4.90;;;;;;;7.81;37.37;99240.28;1785158;80;21278;-83
2021/04/10 04:02:17;;;;;;;6.55;4.78;;;;;;;7.85;37.18;99249.98;1785485;80;21246;-83
2021/04/10 04:04:43;;;;;;;7.22;4.80;;;;;;;7.88;37.13;99245.20;1785101;80;21117;-84
2021/04/10 04:07:10;;;;;;;7.40;5.00;;;;;;;7.91;37.09;99238.28;1785570;80;21711;-84
2021/04/10 04:09:37;;;;;;;9.58;5.30;;;;;;;7.95;37.02;99241.83;1785243;80;21202;-84
2021/04/10 04:12:04;;;;;;;8.18;5.00;;;;;;;7.99;36.96;99245.34;1785644;80;21120;-84
2021/04/10 04:14:31;;;;;;;;;;;;;;;8.04;36.97;99245.03;1787636;80;21706;-84
2021/04/10 04:16:58;;;;;;;6.75;4.80;;;;;;;8.10;36.99;99242.23;1748048;82;20142;-84
2021/04/10 04:19:24;;;;;;;8.20;4.78;;;;;;;8.14;36.90;99248.45;1748304;82;21150;-83
2021/04/10 04:21:51;;;;;;;6.85;4.70;;;;;;;8.15;36.89;99241.12;1751542;82;21149;-83
2021/04/10 04:24:17;;;;;;;6.87;4.90;;;;;;;8.14;36.90;99251.16;1748103;82;21157;-83
2021/04/10 04:26:44;;;;;;;6.80;4.80;;;;;;;8.20;36.89;99240.80;1751482;82;21156;-83
2021/04/10 04:29:11;;;;;;;7.58;5.30;;;;;;;8.32;36.68;99247.34;1748124;82;21176;-83
2021/04/10 04:31:37;;;;;;;8.98;5.10;;;;;;;8.40;36.52;99238.74;1751293;82;21156;-83
2021/04/10 04:34:04;;;;;;;6.37;4.90;;;;;;;8.48;36.44;99247.15;1747816;82;21612;-84
2021/04/10 04:36:30;;;;;;;6.17;5.00;;;;;;;8.61;36.31;99246.34;1751240;82;21184;-83
2021/04/10 04:38:57;;;;;;;7.55;4.80;;;;;;;8.76;36.11;99243.22;1748130;82;21576;-83
2021/04/10 04:41:23;;;;;;;6.62;4.67;;;;;;;8.94;35.92;99246.87;1751345;82;21137;-83
2021/04/10 04:43:50;;;;;;;7.40;4.87;;;;;;;9.10;35.70;99250.12;1747999;82;21611;-83
2021/04/10 04:46:16;;;;;;;7.03;5.08;;;;;;;9.24;35.55;99255.47;1751457;82;21140;-83
2021/04/10 04:48:43;;;;;;;6.58;4.65;;;;;;;9.39;35.27;99249.02;1748095;82;21153;-83
2021/04/10 04:51:10;;;;;;;7.33;4.95;;;;;;;9.58;35.08;99251.30;1751545;82;21176;-83
2021/04/10 04:53:36;;;;;;;7.33;4.85;;;;;;;9.73;34.95;99253.70;1748008;82;21213;-83
2021/04/10 04:56:03;;;;;;;7.70;5.37;;;;;;;9.90;34.66;99259.07;1751425;82;21598;-83
2021/04/10 04:58:30;;;;;;;7.80;5.45;;;;;;;9.95;34.49;99260.63;1748219;82;21137;-82
2021/04/10 05:00:56;;;;;;;6.75;4.87;;;;;;;10.06;34.36;99261.47;1751955;82;21141;-82
2021/04/10 05:03:23;;;;;;;6.53;5.35;;;;;;;10.21;34.20;99257.67;1748356;82;21156;-83
2021/04/10 05:05:49;;;;;;;7.05;5.40;;;;;;;10.46;34.03;99257.62;1748186;82;21619;-82
2021/04/10 05:08:16;;;;;;;6.90;5.25;;;;;;;10.69;33.80;99266.22;1751554;82;21161;-81
2021/04/10 05:10:42;;;;;;;8.00;5.55;;;;;;;10.93;33.32;99256.58;1748333;82;21596;-82
2021/04/10 05:13:09;;;;;;;7.15;5.33;;;;;;;11.11;32.99;99262.06;1751445;82;21176;-83
2021/04/10 05:15:36;;;;;;;7.87;5.93;;;;;;;11.38;32.74;99263.06;1748036;82;21168;-83
2021/04/10 05:18:03;;;;;;;7.78;5.10;;;;;;;11.64;32.40;99264.00;1751464;82;22312;-84
2021/04/10 05:20:29;;;;;;;6.55;5.40;;;;;;;11.91;32.04;99263.02;1748335;82;21173;-84
2021/04/10 05:22:56;;;;;;;6.45;5.00;;;;;;;12.11;31.71;99262.02;1748249;82;21165;-84
2021/04/10 05:25:23;;;;;;;5.80;4.83;;;;;;;12.35;31.45;99273.20;1751526;82;21615;-83
2021/04/10 05:27:50;;;;;;;6.15;5.12;;;;;;;12.40;31.11;99272.22;1748207;82;21618;-83
2021/04/10 05:30:17;;;;;;;9.08;5.40;;;;;;;12.31;30.99;99272.45;1751801;82;21658;-84
2021/04/10 05:32:44;;;;;;;6.40;4.78;;;;;;;12.09;31.18;99278.55;1748208;82;21185;-84
2021/04/10 05:35:11;;;;;;;7.08;5.42;;;;;;;11.87;31.33;99276.46;1751365;82;21157;-82
2021/04/10 05:37:37;;;;;;;7.17;4.97;;;;;;;11.67;31.48;99280.90;1747888;82;21176;-84
2021/04/10 05:40:05;;;;;;;6.53;5.25;;;;;;;11.80;31.53;99276.43;1751955;82;21141;-85
2021/04/10 05:42:32;;;;;;;7.62;4.80;;;;;;;12.12;31.19;99281.84;1742886;82;21152;-84
2021/04/10 05:44:58;;;;;;;6.40;5.20;;;;;;;12.52;30.74;99268.30;1776874;81;21117;-84
2021/04/10 05:47:24;;;;;;;7.62;5.42;;;;;;;12.97;30.34;99276.62;1776834;80;21156;-86
2021/04/10 05:49:51;;;;;;;7.22;5.03;;;;;;;13.50;29.77;99274.70;1776604;81;21141;-84
2021/04/10 05:52:18;;;;;;;7.28;5.22;;;;;;;13.86;29.21;99279.28;1777139;81;21157;-83
2021/04/10 05:54:44;;;;;;;7.28;5.33;;;;;;;14.24;28.72;99280.65;1776378;81;21287;-88
2021/04/10 05:57:11;;;;;;;6.93;5.00;;;;;;;14.36;28.76;99271.14;1776825;80;21152;-88
2021/04/10 05:59:37;;;;;;;6.10;4.93;;;;;;;14.36;28.64;99282.06;1776818;80;21255;-89
2021/04/10 06:02:05;;;;;;;6.20;4.63;;;;;;;14.20;28.78;99284.00;1776702;81;21337;-91
2021/04/10 06:04:35;;;;;;;7.05;5.40;;;;;;;14.02;28.96;99286.13;1776702;80;21173;-95
2021/04/10 06:07:02;;;;;;;7.47;5.33;;;;;;;13.92;29.01;99283.11;1776415;80;21279;-84
2021/04/10 06:09:29;;;;;;;6.22;4.55;;;;;;;13.80;29.01;99281.47;1776766;81;21164;-85
2021/04/10 06:11:55;;;;;;;7.47;5.23;;;;;;;13.76;29.01;99285.01;1776759;81;21278;-86
2021/04/10 06:14:22;;;;;;;9.43;5.03;;;;;;;13.66;29.07;99287.83;1776778;81;21274;-86
2021/04/10 06:16:49;;;;;;;7.37;5.08;;;;;;;14.37;28.70;99287.11;1776360;81;21306;-82
2021/04/10 06:19:16;;;;;;;6.45;5.28;;;;;;;18.48;24.05;99286.36;1776710;81;21251;-83
2021/04/10 06:21:43;;;;;;;7.62;4.97;;;;;;;18.48;24.05;99286.36;1776541;80;21271;-83
2021/04/10 06:24:10;;;;;;;6.37;5.00;;;;;;;19.97;22.97;99292.58;1776733;81;21723;-83
2021/04/10 06:26:36;;;;;;;8.23;5.53;;;;;;;21.01;21.65;99283.30;1776636;80;21145;-84
2021/04/10 06:29:03;;;;;;;6.27;5.07;;;;;;;21.21;21.33;99287.82;1776716;80;21242;-90
2021/04/10 06:31:30;;;;;;;6.20;5.03;;;;;;;21.88;20.76;99295.98;1776535;81;21468;-89
2021/04/10 06:33:56;;;;;;;7.78;5.12;;;;;;;22.39;20.16;99295.36;1776421;81;21724;-85
2021/04/10 06:36:24;;;;;;;5.37;4.70;;;;;;;22.72;19.82;99298.84;1776794;81;21286;-86
2021/04/10 06:38:51;;;;;;;5.53;4.58;;;;;;;23.24;19.39;99299.63;1776605;80;21105;-85
2021/04/10 06:41:17;;;;;;;10.30;7.07;;;;;;;23.84;18.98;99301.28;1776736;81;21714;-89
2021/04/10 06:43:44;;;;;;;6.97;5.20;;;;;;;24.18;19.04;99297.17;1782356;80;21986;-90
2021/04/10 06:46:11;;;;;;;5.55;4.62;;;;;;;24.88;18.21;99305.59;1782233;80;21159;-89
2021/04/10 06:48:39;;;;;;;6.20;5.28;;;;;;;24.95;17.92;99301.81;1782493;80;21294;-82
2021/04/10 06:51:07;;;;;;;6.87;5.08;;;;;;;24.84;17.93;99309.97;1781700;80;21270;-82
2021/04/10 06:53:33;;;;;;;5.85;4.85;;;;;;;25.35;17.54;99301.05;1782309;80;21282;-88
2021/04/10 06:56:02;;;;;;;7.40;4.95;;;;;;;26.28;17.05;99299.19;1747218;80;21594;-85
2021/04/10 06:58:50;;;;;;;8.18;5.42;;;;;;;26.77;16.45;99291.81;1745263;82;21173;-86
2021/04/10 07:01:16;;;;;;;6.37;4.92;;;;;;;27.26;16.29;99313.49;1745092;82;21172;-85
2021/04/10 07:03:43;;;;;;;6.03;4.80;;;;;;;27.36;15.96;99307.83;1745506;82;21161;-84
2021/04/10 07:06:10;;;;;;;6.75;4.70;;;;;;;27.68;15.90;99313.46;1745472;82;21180;-85
2021/04/10 07:08:37;;;;;;;6.10;5.00;;;;;;;28.02;15.65;99306.66;1745325;82;21168;-85
2021/04/10 07:11:05;;;;;;;5.40;4.45;;;;;;;27.88;15.61;99314.59;1745249;82;21177;-83
2021/04/10 07:13:32;;;;;;;5.78;4.80;;;;;;;28.09;15.42;99315.93;1745636;82;21164;-84
2021/04/10 07:16:01;;;;;;;8.38;4.75;;;;;;;29.05;14.99;99322.33;1745244;82;21148;-83
2021/04/10 07:18:28;;;;;;;7.37;4.78;;;;;;;29.50;14.67;99326.47;1744456;82;21184;-85
2021/04/10 07:21:26;;;;;;;7.33;4.60;;;;;;;29.82;14.20;99324.08;1745369;82;21184;-87
2021/04/10 07:23:54;;;;;;;6.10;4.17;;;;;;;29.77;14.09;99331.24;1745520;82;21158;-90
2021/04/10 07:26:22;;;;;;;4.90;4.22;;;;;;;30.00;14.19;99326.95;1745217;82;21136;-83
2021/04/10 07:28:49;;;;;;;5.67;4.92;;;;;;;30.13;13.88;99332.73;1716065;82;21564;-83
2021/04/10 07:31:16;;;;;;;4.78;4.33;;;;;;;29.70;14.05;99330.37;1745496;82;21157;-84
2021/04/10 07:33:43;;;;;;;5.55;4.60;;;;;;;30.29;13.88;99329.76;1745323;82;21160;-88
2021/04/10 07:36:11;;;;;;;7.28;5.28;;;;;;;30.66;13.55;99334.84;1745646;82;21129;-83
2021/04/10 07:38:41;;;;;;;5.80;4.28;;;;;;;30.85;13.59;99325.17;1715354;82;22336;-86
2021/04/10 07:41:17;;;;;;;5.95;4.10;;;;;;;31.66;13.13;99330.30;1745340;82;21141;-88
2021/04/10 07:43:43;;;;;;;4.95;4.20;;;;;;;32.20;12.68;99331.45;1747473;82;21145;-87
2021/04/10 07:46:19;;;;;;;5.45;4.30;;;;;;;31.68;12.97;99325.56;1751280;82;21161;-87
2021/04/10 07:49:02;;;;;;;5.17;4.60;;;;;;;32.51;12.74;99328.59;1747877;82;21172;-87
2021/04/10 07:51:29;;;;;;;5.58;3.83;;;;;;;33.18;12.39;99319.73;1747978;82;21165;-87
2021/04/10 07:53:56;;;;;;;6.20;4.10;;;;;;;33.07;12.20;99325.55;1751155;82;21623;-87
2021/04/10 07:56:22;;;;;;;5.20;3.95;;;;;;;32.79;12.23;99327.39;1748346;82;21161;-87
2021/04/10 07:58:49;;;;;;;6.90;4.50;;;;;;;32.46;12.43;99320.96;1748120;82;21172;-87
2021/04/10 08:01:15;;;;;;;5.25;4.10;;;;;;;32.60;12.44;99322.55;1751181;82;21631;-87
2021/04/10 08:03:42;;;;;;;;;;;;;;;33.16;12.19;99323.06;1750312;82;21148;-87
2021/04/10 08:06:11;;;;;;;5.10;3.73;;;;;;;33.81;12.44;99310.97;1751403;82;20183;-86
2021/04/10 08:08:48;;;;;;;5.60;3.92;;;;;;;33.84;12.03;99326.69;1747976;82;21164;-87
2021/04/10 08:11:14;;;;;;;5.00;4.00;;;;;;;33.12;11.94;99323.27;1748060;82;21267;-87
2021/04/10 08:14:06;;;;;;;4.47;3.60;;;;;;;32.87;12.32;99316.37;1750984;82;21587;-87
2021/04/10 08:16:48;;;;;;;4.87;3.62;;;;;;;33.36;12.00;99311.06;1870814;76;22959;-88
2021/04/10 08:19:15;;;;;;;5.53;3.55;;;;;;;32.86;12.25;99315.52;1823209;78;21554;-86
2021/04/10 08:21:50;;;;;;;4.83;3.72;;;;;;;33.03;12.12;99301.94;1823650;79;21143;-86
2021/04/10 08:24:39;;;;;;;5.50;3.60;;;;;;;33.04;12.07;99304.09;1823203;79;21528;-86
2021/04/10 08:27:09;;;;;;;5.40;3.65;;;;;;;33.03;12.05;99292.74;1823202;79;21131;-88
2021/04/10 08:29:35;;;;;;;4.47;3.70;;;;;;;33.71;11.85;99302.84;1822713;79;21597;-87
2021/04/10 08:32:02;;;;;;;;;;;;;;;34.11;11.62;99295.77;1826037;79;21134;-87
2021/04/10 08:34:29;;;;;;;3.70;3.30;;;;;;;34.38;11.97;99283.74;1823482;79;20137;-88
2021/04/10 08:36:57;;;;;;;6.53;3.80;;;;;;;34.28;11.74;99291.15;1823202;79;21574;-88
2021/04/10 08:39:28;;;;;;;4.17;3.65;;;;;;;34.78;11.50;99286.38;1823317;79;21132;-88
2021/04/10 08:41:58;;;;;;;6.08;3.83;;;;;;;35.60;10.88;99290.92;1822320;79;21132;-88
2021/04/10 08:44:27;;;;;;;5.70;3.58;;;;;;;35.57;11.09;99299.85;1823249;79;21158;-88
2021/04/10 08:46:54;;;;;;;6.00;3.67;;;;;;;35.57;10.79;99294.95;1823290;79;21526;-88
2021/04/10 08:49:20;;;;;;;4.05;3.65;;;;;;;35.50;10.87;99290.02;1823367;79;21136;-88
2021/04/10 08:51:50;;;;;;;5.25;3.75;;;;;;;36.13;10.73;99305.97;1823234;79;21139;-88
2021/04/10 08:54:16;;;;;;;9.03;3.98;;;;;;;35.98;10.47;99293.25;1823192;79;21143;-88
2021/04/10 08:56:43;;;;;;;6.25;3.80;;;;;;;35.82;10.38;99291.67;1822991;79;21143;-88
2021/04/10 08:59:18;;;;;;;5.85;3.60;;;;;;;35.03;10.74;99298.70;1765670;79;21134;-88
2021/04/10 09:01:47;;;;;;;5.67;3.33;;;;;;;34.64;10.84;99296.22;1822773;79;21261;-87
2021/04/10 09:04:14;;;;;;;4.70;3.75;;;;;;;34.20;11.03;99303.75;1788383;79;21519;-88
2021/04/10 09:06:47;;;;;;;5.42;3.62;;;;;;;33.67;11.34;99296.80;1823319;79;21139;-87
2021/04/10 09:09:20;;;;;;;3.95;3.40;;;;;;;33.92;11.16;99294.48;1823496;79;21119;-87
2021/04/10 09:11:46;;;;;;;5.92;3.50;;;;;;;33.79;11.36;99302.95;1823422;79;21566;-88
2021/04/10 09:14:13;;;;;;;;;;;;;;;34.21;11.24;99289.00;1826021;79;21160;-87
2021/04/10 09:16:51;;;;;;;4.17;3.77;;;;;;;34.54;11.46;99291.70;1810905;79;20400;-87
2021/04/10 09:19:22;;;;;;;5.28;3.45;;;;;;;34.57;11.28;99289.22;1809065;79;21562;-88
2021/04/10 09:21:55;;;;;;;4.28;3.62;;;;;;;34.07;11.03;99293.92;1808837;79;21148;-88
2021/04/10 09:24:25;;;;;;;5.15;3.40;;;;;;;33.79;11.12;99288.87;1809028;79;21127;-87
2021/04/10 09:27:01;;;;;;;4.12;3.25;;;;;;;33.01;11.35;99288.30;1808635;79;21456;-87
2021/04/10 09:29:31;;;;;;;5.00;3.60;;;;;;;32.53;11.65;99296.48;1808244;79;21550;-96
2021/04/10 09:31:59;;;;;;;5.75;4.08;;;;;;;31.78;11.81;99288.79;1804013;79;21282;-92
2021/04/10 09:34:50;;;;;;;4.62;3.70;;;;;;;31.11;12.38;99285.44;1808444;79;21128;-95
2021/04/10 09:37:23;;;;;;;6.15;3.47;;;;;;;31.01;12.63;99295.47;1808921;79;21132;-94
2021/04/10 09:40:17;;;;;;;4.97;3.62;;;;;;;31.26;12.49;99286.42;1808586;79;21092;-93
2021/04/10 09:45:14;;;;;;;5.05;3.90;;;;;;;29.80;13.04;99289.62;1808426;79;21128;-93
2021/04/10 09:48:03;;;;;;;7.87;4.47;;;;;;;27.66;14.22;99283.92;1808364;79;21269;-93
2021/04/10 09:50:40;;;;;;;5.22;3.40;;;;;;;26.35;15.58;99277.09;1808440;79;21285;-95
2021/04/10 09:53:21;;;;;;;6.13;4.57;;;;;;;25.53;16.44;99269.43;1808766;79;21559;-95
2021/04/10 09:55:50;;;;;;;4.90;3.85;;;;;;;25.04;16.81;99270.37;1808385;79;21539;-96
2021/04/10 09:58:17;;;;;;;4.28;3.10;;;;;;;24.35;17.58;99272.50;1808353;79;21697;-93
2021/04/10 10:00:53;;;;;;;5.55;3.55;;;;;;;23.83;17.61;99261.70;1808242;79;21100;-90
2021/04/10 10:03:21;;;;;;;4.50;3.50;;;;;;;23.19;18.44;99271.77;1808334;79;21124;-85
2021/04/10 10:05:50;;;;;;;5.12;3.10;;;;;;;22.95;18.70;99268.94;1808233;79;21274;-94
2021/04/10 10:08:18;;;;;;;4.78;3.37;;;;;;;22.78;18.99;99265.75;1808473;79;21140;-94
2021/04/10 10:10:53;;;;;;;5.37;3.20;;;;;;;22.55;19.41;99265.83;1808429;79;21689;-93
2021/04/10 10:13:22;;;;;;;4.80;3.20;;;;;;;22.53;19.86;99269.05;1808413;79;21120;-94
2021/04/10 10:15:50;;;;;;;5.65;3.15;;;;;;;22.61;19.63;99259.81;1808421;79;21258;-94
2021/04/10 10:18:20;;;;;;;4.85;3.37;;;;;;;22.52;19.97;99263.99;1808428;79;21135;-94
2021/04/10 10:20:55;;;;;;;5.37;3.10;;;;;;;22.50;19.78;99263.69;1808799;79;21285;-92
2021/04/10 10:23:27;;;;;;;4.65;3.30;;;;;;;22.13;19.91;99256.80;1808149;79;21298;-93
2021/04/10 10:25:54;;;;;;;4.40;3.00;;;;;;;21.71;20.32;99252.64;1808410;79;21263;-92
2021/04/10 10:28:21;;;;;;;3.83;2.87;;;;;;;21.24;20.95;99247.47;1808465;79;21262;-94
2021/04/10 10:30:48;;;;;;;5.92;3.30;;;;;;;20.93;21.48;99246.16;1808337;79;21298;-94
2021/04/10 10:33:15;;;;;;;5.50;3.15;;;;;;;20.86;21.81;99241.66;1808787;79;21270;-92
2021/04/10 10:35:52;;;;;;;4.90;3.10;;;;;;;20.64;21.97;99246.47;1808360;79;21293;-88
2021/04/10 10:38:19;;;;;;;3.92;2.90;;;;;;;20.58;22.16;99248.44;1808317;79;21677;-86
2021/04/10 10:40:48;;;;;;;4.95;3.00;;;;;;;20.46;22.18;99242.38;1808510;79;21124;-87
2021/04/10 10:43:15;;;;;;;4.30;2.85;;;;;;;20.13;22.52;99252.43;1808755;79;21128;-84
2021/04/10 10:45:43;;;;;;;5.00;2.62;;;;;;;20.06;22.58;99258.19;1808407;79;21270;-87
2021/04/10 10:48:22;;;;;;;4.42;2.90;;;;;;;19.99;22.28;99239.74;1808347;79;21696;-88
2021/04/10 10:50:49;;;;;;;5.45;3.33;;;;;;;19.90;22.55;99246.72;1808366;79;21270;-87
2021/04/10 10:53:22;;;;;;;4.17;2.75;;;;;;;19.86;22.73;99247.47;1808348;79;21258;-87
2021/04/10 10:56:06;;;;;;;5.40;2.90;;;;;;;19.83;23.09;99248.95;1808274;79;21542;-89
2021/04/10 10:58:38;;;;;;;7.87;2.95;;;;;;;19.84;22.87;99251.27;1808115;79;21714;-87
2021/04/10 11:01:25;;;;;;;5.62;3.27;;;;;;;19.83;23.13;99246.96;1808451;79;21096;-85
2021/04/10 11:04:03;;;;;;;4.95;3.17;;;;;;;19.92;23.44;99246.29;1805898;79;21262;-86
2021/04/10 11:06:35;;;;;;;6.28;3.25;;;;;;;20.01;23.33;99242.22;1808316;79;21285;-87
2021/04/10 11:09:06;;;;;;;5.30;3.67;;;;;;;19.95;23.12;99240.64;1808067;79;21270;-85
2021/04/10 11:11:36;;;;;;;7.40;3.12;;;;;;;19.84;23.41;99245.77;1808242;79;21144;-85
2021/04/10 11:14:03;;;;;;;5.50;3.02;;;;;;;19.80;23.54;99238.83;1807929;79;21278;-85
2021/04/10 11:16:29;;;;;;;7.90;2.90;;;;;;;19.77;23.56;99239.72;1808340;79;21151;-86
2021/04/10 11:18:57;;;;;;;8.15;3.60;;;;;;;19.80;23.23;99238.21;1808445;79;21270;-85
2021/04/10 11:21:27;;;;;;;4.08;3.00;;;;;;;19.71;23.11;99248.55;1808680;79;21140;-85
2021/04/10 11:23:59;;;;;;;5.25;2.95;;;;;;;19.62;23.00;99234.67;1808731;79;21139;-85
2021/04/10 11:26:40;;;;;;;5.92;3.02;;;;;;;19.59;23.25;99231.44;1808326;79;21275;-85
2021/04/10 11:29:21;;;;;;;4.22;3.20;;;;;;;19.56;23.33;99226.03;1808186;79;21282;-85
2021/04/10 11:32:10;;;;;;;5.60;3.35;;;;;;;19.46;23.64;99230.08;1808031;79;21246;-85
2021/04/10 11:34:41;;;;;;;7.22;3.47;;;;;;;19.37;23.69;99233.34;1808296;79;21135;-84
2021/04/10 11:37:09;;;;;;;7.45;3.20;;;;;;;19.27;23.73;99231.88;1808303;79;21258;-84
2021/04/10 11:39:50;;;;;;;4.78;3.12;;;;;;;19.27;23.71;99227.75;1808220;79;21566;-85
2021/04/10 11:42:23;;;;;;;6.72;4.65;;;;;;;19.28;23.88;99227.14;1808186;79;21290;-85
2021/04/10 11:44:50;;;;;;;5.75;3.30;;;;;;;19.20;24.15;99225.22;1808313;79;21262;-85
2021/04/10 11:47:21;;;;;;;9.65;3.80;;;;;;;19.15;24.02;99227.17;1808340;79;21586;-86
2021/04/10 11:49:47;;;;;;;6.15;3.20;;;;;;;19.15;24.40;99228.55;1808301;79;21254;-86
2021/04/10 11:52:14;;;;;;;6.72;3.02;;;;;;;19.18;24.16;99225.50;1808119;79;21305;-85